Terminal Aerodrome Forecast
Issued by NWS

Home | Current Version | Previous Version | Graphics & Text | Print | Product List | Glossary On
Versions: 1 2 3 4 5 6 7 8 9 10 11 12 13 14 15 16 17 18 19 20 21 22 23 24 25 26 27 28 29
841
FTUS43 KABR 300520
TAFPIR
TAF
KPIR 300520Z 3006/0106 32030G34KT 3/4SM -SN BR FEW009 BKN013 OVC018
      TEMPO 3008/3012 2SM -SN BLSN
     FM301200 31023G33KT 3SM -SN OVC010
     FM301500 31020G29KT P6SM OVC010
     FM302200 31017G25KT P6SM OVC010=

USA.gov is the U.S. government's official web portal to all federal, state and local government web resources and services.